This is the latest recevied weather packets stored in our database for station/object IW1PPB-3. If no packets are shown the sender has not sent any weather packets the latest 10 day(s).
| Time | Temp. | Humidity | Pressure | Rain* | Wind** | Luminosity | Snow |
|---|---|---|---|---|---|---|---|
| 1777709016 | 18.89° C | 57% | 1026.1 hPa | 0 mm | - | - | - |
| 1777708415 | 18.33° C | 58% | 1026 hPa | 0 mm | - | - | - |
| 1777707816 | 18.33° C | 57% | 1026.1 hPa | 0 mm | - | - | - |
| 1777707219 | 18.33° C | 56% | 1026.1 hPa | 0 mm | - | - | - |
| 1777706608 | 18.33° C | 57% | 1026.1 hPa | 0 mm | - | - | - |
| 1777706015 | 17.78° C | 57% | 1026.1 hPa | 0 mm | - | - | - |
| 1777705410 | 17.78° C | 60% | 1026.1 hPa | 0 mm | - | - | - |
| 1777704815 | 18.33° C | 60% | 1026.1 hPa | 0 mm | - | - | - |
| 1777704202 | 18.89° C | 53% | 1026 hPa | 0 mm | - | - | - |
| 1777703617 | 18.33° C | 54% | 1026 hPa | 0 mm | - | - | - |
| 1777703008 | 17.78° C | 55% | 1026 hPa | 0 mm | - | - | - |
| 1777702403 | 17.22° C | 56% | 1026 hPa | 0 mm | - | - | - |
| 1777701814 | 16.67° C | 58% | 1026 hPa | 0 mm | - | - | - |
| 1777701229 | 16.11° C | 59% | 1026 hPa | 0 mm | - | - | - |
| 1777700618 | 15.56° C | 59% | 1026 hPa | 0 mm | - | - | - |
| 1777700003 | 15.56° C | 60% | 1025.9 hPa | 0 mm | - | - | - |
| 1777699402 | 15.56° C | 60% | 1026 hPa | 0 mm | - | - | - |
| 1777698807 | 15.56° C | 60% | 1025.9 hPa | 0 mm | - | - | - |
| 1777698222 | 15° C | 60% | 1025.9 hPa | 0 mm | - | - | - |
| 1777697626 | 15° C | 61% | 1025.8 hPa | 0 mm | - | - | - |
| 1777697012 | 15° C | 60% | 1025.7 hPa | 0 mm | - | - | - |
| 1777696431 | 15° C | 59% | 1025.8 hPa | 0 mm | - | - | - |
| 1777695804 | 15° C | 59% | 1025.8 hPa | 0 mm | - | - | - |
| 1777695223 | 15° C | 59% | 1025.7 hPa | 0 mm | - | - | - |
| 1777694610 | 15.56° C | 57% | 1025.6 hPa | 0 mm | - | - | - |
* Rain latest hour (hover to see other rain measurements)
** Current wind speed in m/s (hover to see current wind gust speed)